Time;durP1;ratioP1;P1;durP2;ratioP2;P2;SDS_P1;SDS_P2;PMS_P1;PMS_P2;Temp;Humidity;BMP_temperature;BMP_pressure;BME280_temperature;BME280_humidity;BME280_pressure;Samples;Min_cycle;Max_cycle;Signal;HPM_P1;HPM_P2
2022/08/25 00:01:29;;;;;;;7.05;4.40;;;21.40;99.90;;;;;;5009334;28;20495;-72
2022/08/25 00:04:17;;;;;;;7.60;4.30;;;21.40;99.90;;;;;;5006135;28;20045;-72
2022/08/25 00:07:04;;;;;;;6.32;4.57;;;21.40;99.90;;;;;;5004528;28;20044;-73
2022/08/25 00:09:49;;;;;;;7.47;4.20;;;21.30;99.90;;;;;;5001481;28;20080;-72
2022/08/25 00:12:35;;;;;;;6.28;4.07;;;21.30;99.90;;;;;;5008295;28;20096;-72
2022/08/25 00:15:22;;;;;;;5.30;3.97;;;21.30;99.90;;;;;;4999572;28;20046;-72
2022/08/25 00:18:08;;;;;;;4.57;4.05;;;21.30;99.90;;;;;;5022393;28;20095;-72
2022/08/25 00:20:55;;;;;;;5.28;3.78;;;21.20;99.90;;;;;;5002105;28;20046;-72
2022/08/25 00:23:41;;;;;;;7.65;3.67;;;21.20;99.90;;;;;;5008549;28;20539;-72
2022/08/25 00:26:28;;;;;;;6.18;3.50;;;21.20;99.90;;;;;;4996218;28;20104;-72
2022/08/25 00:29:14;;;;;;;5.05;3.50;;;21.10;99.90;;;;;;4993666;28;20057;-72
2022/08/25 00:32:00;;;;;;;5.30;4.00;;;21.10;99.90;;;;;;5005254;28;20489;-72
2022/08/25 00:34:46;;;;;;;7.47;3.80;;;21.10;99.90;;;;;;4992035;28;20048;-72
2022/08/25 00:37:32;;;;;;;7.00;4.00;;;21.00;99.90;;;;;;5007414;28;20129;-72
2022/08/25 00:40:19;;;;;;;9.05;4.18;;;21.00;99.90;;;;;;5000906;28;20053;-72
2022/08/25 00:43:06;;;;;;;6.72;4.05;;;21.00;99.90;;;;;;5008554;28;20046;-72
2022/08/25 00:45:52;;;;;;;6.68;3.50;;;20.90;99.90;;;;;;5013029;28;20053;-73
2022/08/25 00:48:41;;;;;;;8.57;4.15;;;20.90;99.90;;;;;;4993504;28;20084;-72
2022/08/25 00:51:43;;;;;;;9.00;4.13;;;20.90;99.90;;;;;;4995101;28;20056;-72
2022/08/25 00:54:34;;;;;;;7.05;3.60;;;20.80;99.90;;;;;;4994697;28;20493;-72
2022/08/25 00:57:25;;;;;;;10.77;3.85;;;20.80;99.90;;;;;;4993754;28;20050;-72
2022/08/25 01:00:11;;;;;;;8.70;3.92;;;20.70;99.90;;;;;;4994466;28;20050;-72
2022/08/25 01:02:57;;;;;;;5.95;3.95;;;20.70;99.90;;;;;;5001609;28;20037;-72
2022/08/25 01:05:45;;;;;;;7.93;3.53;;;20.70;99.90;;;;;;4976001;28;20398;-72
2022/08/25 01:08:32;;;;;;;5.22;3.85;;;20.70;99.90;;;;;;4998539;28;20053;-72
2022/08/25 01:11:19;;;;;;;7.20;3.38;;;20.70;99.90;;;;;;4995795;28;20046;-72
2022/08/25 01:14:06;;;;;;;7.07;3.53;;;20.70;99.90;;;;;;5001655;28;20042;-72
2022/08/25 01:16:53;;;;;;;6.20;3.58;;;20.60;99.90;;;;;;4981806;28;20420;-72
2022/08/25 01:19:39;;;;;;;9.40;4.25;;;20.60;99.90;;;;;;5011150;28;20417;-72
2022/08/25 01:22:25;;;;;;;7.53;3.50;;;20.60;99.90;;;;;;5012190;28;20169;-72
2022/08/25 01:25:37;;;;;;;6.88;3.58;;;20.60;99.90;;;;;;4993891;28;20119;-72
2022/08/25 01:28:23;;;;;;;6.00;3.60;;;20.60;99.90;;;;;;4975601;28;20049;-72
2022/08/25 01:31:09;;;;;;;7.22;3.17;;;20.50;99.90;;;;;;5010454;28;20041;-72
2022/08/25 01:33:57;;;;;;;6.90;3.22;;;20.50;99.90;;;;;;4994867;28;20053;-73
2022/08/25 01:36:43;;;;;;;4.45;3.47;;;20.50;99.90;;;;;;4994442;28;20045;-72
2022/08/25 01:39:32;;;;;;;5.97;3.30;;;20.50;99.90;;;;;;4994149;28;20382;-72
2022/08/25 01:42:31;;;;;;;6.55;3.40;;;20.50;99.90;;;;;;5007753;28;20132;-72
2022/08/25 01:45:17;;;;;;;5.00;3.42;;;20.40;99.90;;;;;;5010709;28;20109;-72
2022/08/25 01:48:05;;;;;;;5.00;2.75;;;20.40;99.90;;;;;;4994812;28;20524;-72
2022/08/25 01:50:51;;;;;;;5.95;3.05;;;20.40;99.90;;;;;;5010159;28;20508;-72
2022/08/25 01:53:37;;;;;;;4.55;2.90;;;20.30;99.90;;;;;;4995055;28;20045;-72
2022/08/25 01:56:23;;;;;;;4.50;2.85;;;20.30;99.90;;;;;;4994009;28;20050;-72
2022/08/25 01:59:09;;;;;;;6.55;3.15;;;20.30;99.90;;;;;;5011942;28;20133;-72
2022/08/25 02:01:55;;;;;;;4.70;3.00;;;20.20;99.90;;;;;;5013639;28;20076;-72
2022/08/25 02:04:41;;;;;;;9.85;2.90;;;20.20;99.90;;;;;;4999850;28;20505;-72
2022/08/25 02:07:26;;;;;;;6.55;2.80;;;20.20;99.90;;;;;;4993414;28;20493;-72
2022/08/25 02:10:12;;;;;;;4.55;3.00;;;20.20;99.90;;;;;;5010159;28;20050;-72
2022/08/25 02:12:59;;;;;;;6.85;3.47;;;20.20;99.90;;;;;;4997067;28;20171;-72
2022/08/25 02:15:49;;;;;;;6.25;3.15;;;20.10;99.90;;;;;;4983743;28;20486;-71
2022/08/25 02:18:35;;;;;;;5.93;3.30;;;20.00;99.90;;;;;;4992582;28;20108;-72
2022/08/25 02:21:21;;;;;;;7.57;3.75;;;20.00;99.90;;;;;;5010997;28;20452;-72
2022/08/25 02:24:08;;;;;;;6.78;3.20;;;20.00;99.90;;;;;;4991837;28;20058;-72
2022/08/25 02:26:54;;;;;;;5.38;2.78;;;19.90;99.90;;;;;;5011444;28;20050;-72
2022/08/25 02:29:40;;;;;;;6.88;2.72;;;19.90;99.90;;;;;;4993860;28;20046;-72
2022/08/25 02:32:26;;;;;;;9.20;3.03;;;19.90;99.90;;;;;;5010821;28;20054;-72
2022/08/25 02:35:12;;;;;;;4.65;2.60;;;19.90;99.90;;;;;;4994158;28;20501;-72
2022/08/25 02:37:58;;;;;;;8.38;3.10;;;19.90;99.90;;;;;;5010755;28;20046;-72
2022/08/25 02:40:44;;;;;;;5.47;2.90;;;19.90;99.90;;;;;;4993960;28;20082;-72
2022/08/25 02:43:30;;;;;;;5.93;3.00;;;19.90;99.90;;;;;;4993569;28;20050;-72
2022/08/25 02:46:18;;;;;;;7.63;3.50;;;19.80;99.90;;;;;;4999882;28;20046;-72
2022/08/25 02:49:05;;;;;;;7.15;3.15;;;19.80;99.90;;;;;;4993808;28;20078;-72
2022/08/25 02:51:52;;;;;;;11.73;3.30;;;19.80;99.90;;;;;;4994146;28;20045;-72
2022/08/25 02:54:38;;;;;;;5.00;2.80;;;19.80;99.90;;;;;;4993496;28;20596;-72
2022/08/25 02:57:24;;;;;;;6.80;3.22;;;19.70;99.90;;;;;;4992881;28;20049;-72
2022/08/25 03:00:14;;;;;;;7.47;3.00;;;19.70;99.90;;;;;;5010898;28;20420;-72
2022/08/25 03:03:00;;;;;;;7.25;3.00;;;19.60;99.90;;;;;;4985923;28;20049;-72
2022/08/25 03:05:46;;;;;;;6.18;2.90;;;19.60;99.90;;;;;;4993713;28;20053;-72
2022/08/25 03:08:32;;;;;;;7.40;2.85;;;19.60;99.90;;;;;;4993074;28;20050;-71
2022/08/25 03:11:18;;;;;;;3.97;2.70;;;19.60;99.90;;;;;;4996665;28;20046;-72
2022/08/25 03:14:06;;;;;;;3.88;2.83;;;19.60;99.90;;;;;;5021068;28;20084;-72
2022/08/25 03:16:52;;;;;;;7.97;2.97;;;19.60;99.90;;;;;;4984051;28;20054;-72
2022/08/25 03:19:38;;;;;;;4.80;2.90;;;19.60;99.90;;;;;;4993731;28;20048;-72
2022/08/25 03:22:24;;;;;;;5.80;3.08;;;19.50;99.90;;;;;;4995136;28;20111;-72
2022/08/25 03:28:14;;;;;;;8.25;3.00;;;19.50;99.90;;;;;;4996455;28;20064;-72
2022/08/25 03:31:01;;;;;;;5.05;2.90;;;19.50;99.90;;;;;;4996790;28;20057;-72
2022/08/25 03:33:47;;;;;;;7.40;2.95;;;19.50;99.90;;;;;;5013423;28;20053;-72
2022/08/25 03:36:32;;;;;;;5.70;2.88;;;19.50;99.90;;;;;;4994127;28;20548;-72
2022/08/25 03:39:20;;;;;;;5.80;2.88;;;19.50;99.90;;;;;;4996808;28;20057;-72
2022/08/25 03:42:07;;;;;;;4.18;2.85;;;19.50;99.90;;;;;;5012810;28;20046;-72
2022/08/25 03:44:53;;;;;;;5.35;2.97;;;19.50;99.90;;;;;;4985634;28;20428;-72
2022/08/25 03:47:40;;;;;;;5.10;2.88;;;19.40;99.90;;;;;;4996096;28;20132;-72
2022/08/25 03:50:25;;;;;;;5.75;2.95;;;19.40;99.90;;;;;;4995986;28;20103;-72
2022/08/25 03:53:12;;;;;;;3.17;2.70;;;19.30;99.90;;;;;;4996327;28;20049;-72
2022/08/25 03:55:58;;;;;;;4.90;2.80;;;19.30;99.90;;;;;;5014423;28;20497;-72
2022/08/25 03:58:44;;;;;;;3.97;2.88;;;19.30;99.90;;;;;;5012215;28;20049;-71
2022/08/25 04:01:30;;;;;;;5.50;2.72;;;19.30;99.90;;;;;;5008603;28;20412;-72
2022/08/25 04:04:16;;;;;;;5.88;2.97;;;19.30;99.90;;;;;;4997412;28;20057;-72
2022/08/25 04:07:02;;;;;;;7.60;2.88;;;19.30;99.90;;;;;;4980027;28;20058;-72
2022/08/25 04:09:48;;;;;;;3.67;2.78;;;19.20;99.90;;;;;;4996423;28;20046;-72
2022/08/25 04:12:35;;;;;;;5.88;2.75;;;19.20;99.90;;;;;;4995658;28;20046;-72
2022/08/25 04:15:20;;;;;;;8.13;2.70;;;19.20;99.90;;;;;;5004895;28;20050;-73
2022/08/25 04:18:06;;;;;;;3.70;2.88;;;19.20;99.90;;;;;;4993361;28;20050;-72
2022/08/25 04:21:02;;;;;;;4.70;2.70;;;19.10;99.90;;;;;;4993713;28;20050;-72
2022/08/25 04:23:49;;;;;;;4.60;2.72;;;19.20;99.90;;;;;;4994848;28;20048;-72
2022/08/25 04:26:44;;;;;;;5.68;2.70;;;19.10;99.90;;;;;;4983690;28;20057;-72
2022/08/25 04:29:31;;;;;;;5.30;3.28;;;19.10;99.90;;;;;;4992028;28;20117;-71
2022/08/25 04:32:17;;;;;;;4.85;2.80;;;19.10;99.90;;;;;;5014124;28;20408;-72
2022/08/25 04:35:05;;;;;;;6.00;2.70;;;19.10;99.90;;;;;;4993323;28;20436;-73
2022/08/25 04:37:51;;;;;;;3.38;2.88;;;19.00;99.90;;;;;;4993513;28;20137;-72
2022/08/25 04:40:37;;;;;;;6.70;3.15;;;19.10;99.90;;;;;;4994043;28;20054;-72
2022/08/25 04:43:23;;;;;;;5.07;2.80;;;19.00;99.90;;;;;;4992758;28;20053;-72
2022/08/25 04:46:15;;;;;;;5.68;2.90;;;19.00;99.90;;;;;;4993756;28;20049;-73
2022/08/25 04:49:02;;;;;;;5.22;2.80;;;19.00;99.90;;;;;;4992871;28;20050;-72
2022/08/25 04:51:48;;;;;;;5.03;2.60;;;19.00;99.90;;;;;;4994281;28;20056;-72
2022/08/25 04:54:34;;;;;;;5.57;2.95;;;19.00;99.90;;;;;;4995010;28;20054;-72
2022/08/25 04:57:20;;;;;;;5.78;2.85;;;19.00;99.90;;;;;;5012625;28;20049;-72
2022/08/25 05:00:07;;;;;;;8.13;2.92;;;19.00;99.90;;;;;;4997816;28;20042;-72
2022/08/25 05:02:54;;;;;;;8.10;2.90;;;19.00;99.90;;;;;;5012098;28;20073;-72
2022/08/25 05:05:40;;;;;;;6.18;2.53;;;19.00;99.90;;;;;;4981861;28;20077;-72
2022/08/25 05:08:26;;;;;;;5.03;2.90;;;19.00;99.90;;;;;;4996097;28;20412;-72
2022/08/25 05:11:16;;;;;;;6.03;2.75;;;19.00;99.90;;;;;;4981829;28;20092;-72
2022/08/25 05:14:02;;;;;;;3.63;2.83;;;19.00;99.90;;;;;;4987044;28;20050;-72
2022/08/25 05:16:48;;;;;;;6.00;3.17;;;19.00;99.90;;;;;;4990969;28;20539;-72
2022/08/25 05:19:35;;;;;;;6.63;3.13;;;19.00;99.90;;;;;;4995122;28;20099;-72
2022/08/25 05:22:20;;;;;;;6.05;3.20;;;19.10;99.90;;;;;;4994511;28;20080;-72
2022/08/25 05:25:07;;;;;;;9.57;3.22;;;19.00;99.90;;;;;;5005855;28;20049;-72
2022/08/25 05:27:53;;;;;;;9.38;3.15;;;19.00;99.90;;;;;;5010841;28;20049;-72
2022/08/25 05:30:40;;;;;;;5.03;2.67;;;19.10;99.90;;;;;;5011391;28;20046;-72
2022/08/25 05:33:27;;;;;;;7.28;3.58;;;19.00;99.90;;;;;;4993021;28;20042;-72
2022/08/25 05:36:14;;;;;;;6.43;3.05;;;19.00;99.90;;;;;;4986524;28;20432;-72
2022/08/25 05:39:00;;;;;;;12.48;3.65;;;19.10;99.90;;;;;;4973680;28;20512;-71
2022/08/25 05:41:46;;;;;;;6.65;3.45;;;19.10;99.90;;;;;;4988272;28;20468;-72
2022/08/25 05:44:32;;;;;;;9.40;3.33;;;19.10;99.90;;;;;;5010809;28;20622;-71
2022/08/25 05:47:18;;;;;;;9.50;2.95;;;19.10;99.90;;;;;;5011171;28;20052;-71
2022/08/25 05:50:05;;;;;;;4.50;2.72;;;19.10;99.90;;;;;;4993904;28;20056;-73
2022/08/25 05:52:51;;;;;;;8.20;3.40;;;19.20;99.90;;;;;;4993588;28;20045;-72
2022/08/25 05:55:37;;;;;;;10.40;3.40;;;19.20;99.90;;;;;;4994027;28;20394;-72
2022/08/25 05:58:24;;;;;;;8.20;3.30;;;19.20;99.90;;;;;;4986281;28;20049;-72
2022/08/25 06:04:23;;;;;;;7.43;3.30;;;19.30;99.90;;;;;;4992509;28;20481;-72
2022/08/25 06:07:09;;;;;;;5.88;2.90;;;19.40;99.90;;;;;;4993005;28;20527;-72
2022/08/25 06:09:55;;;;;;;6.38;3.17;;;19.40;99.90;;;;;;5011201;28;20054;-72
2022/08/25 06:12:46;;;;;;;7.15;3.35;;;19.50;99.90;;;;;;4988331;28;20104;-71
2022/08/25 06:15:32;;;;;;;6.82;3.10;;;19.60;99.90;;;;;;5010099;28;20523;-73
2022/08/25 06:18:18;;;;;;;7.15;3.40;;;19.70;99.90;;;;;;4990904;28;20054;-72
2022/08/25 06:21:11;;;;;;;6.22;3.58;;;19.70;99.90;;;;;;4998448;28;20052;-72
2022/08/25 06:23:57;;;;;;;7.80;3.25;;;19.80;99.90;;;;;;4992888;28;20058;-72
2022/08/25 06:26:43;;;;;;;5.43;3.65;;;19.80;99.90;;;;;;4993390;28;20069;-72
2022/08/25 06:29:29;;;;;;;6.03;3.35;;;19.90;99.90;;;;;;5010390;28;20060;-72
2022/08/25 06:32:15;;;;;;;5.00;3.80;;;19.90;99.90;;;;;;4997714;28;20502;-72
2022/08/25 06:35:07;;;;;;;9.55;3.78;;;19.90;99.90;;;;;;5011100;28;20050;-72
2022/08/25 06:37:53;;;;;;;6.50;3.53;;;20.00;99.90;;;;;;4993147;28;20132;-72
2022/08/25 06:40:39;;;;;;;9.30;3.60;;;20.10;99.90;;;;;;4992910;28;20169;-72
2022/08/25 06:43:25;;;;;;;7.43;3.58;;;20.20;99.90;;;;;;4994304;28;20046;-72
2022/08/25 06:46:13;;;;;;;11.57;3.78;;;20.30;99.90;;;;;;4992501;28;20516;-72
2022/08/25 06:48:59;;;;;;;9.00;3.28;;;20.30;99.90;;;;;;4992831;28;20057;-72
2022/08/25 06:51:45;;;;;;;6.45;3.70;;;20.40;99.90;;;;;;5011212;28;20056;-72
2022/08/25 06:54:31;;;;;;;5.15;3.53;;;20.50;99.90;;;;;;4993101;28;20417;-72
2022/08/25 06:57:17;;;;;;;6.57;3.50;;;20.50;99.90;;;;;;4999300;28;20064;-72
2022/08/25 07:00:05;;;;;;;10.15;3.42;;;20.60;99.90;;;;;;4989378;28;20054;-72
2022/08/25 07:02:51;;;;;;;7.38;3.22;;;20.80;99.90;;;;;;4997317;28;20068;-72
2022/08/25 07:05:37;;;;;;;7.10;3.20;;;20.90;99.90;;;;;;4995388;28;20132;-72
2022/08/25 07:08:23;;;;;;;5.43;3.35;;;21.00;99.90;;;;;;5014641;28;20409;-72
2022/08/25 07:11:10;;;;;;;4.28;3.10;;;21.10;99.90;;;;;;4997447;28;20079;-72
2022/08/25 07:13:56;;;;;;;5.72;3.03;;;21.30;99.90;;;;;;5014828;28;20104;-73
2022/08/25 07:16:42;;;;;;;4.43;3.10;;;21.40;99.90;;;;;;4992869;28;20049;-73
2022/08/25 07:19:28;;;;;;;6.20;3.28;;;21.60;99.90;;;;;;4997445;28;20089;-73
2022/08/25 07:22:14;;;;;;;4.75;3.33;;;21.80;99.90;;;;;;4996718;28;20057;-72
2022/08/25 07:25:00;;;;;;;6.20;3.22;;;21.90;99.90;;;;;;4995345;28;20052;-72
2022/08/25 07:27:46;;;;;;;8.90;2.88;;;22.10;99.90;;;;;;4985514;28;20065;-72
2022/08/25 07:30:32;;;;;;;7.00;3.60;;;22.30;99.90;;;;;;5014547;28;20056;-72
2022/08/25 07:33:18;;;;;;;9.57;3.42;;;22.40;99.90;;;;;;4997715;28;20085;-73
2022/08/25 07:36:04;;;;;;;7.03;3.28;;;22.60;99.90;;;;;;5014811;28;20054;-73
2022/08/25 07:38:50;;;;;;;7.35;3.40;;;22.70;99.90;;;;;;5013615;28;20559;-72
2022/08/25 07:41:39;;;;;;;6.93;2.97;;;22.90;99.90;;;;;;5003031;28;20054;-72
2022/08/25 07:44:25;;;;;;;9.93;3.20;;;23.00;99.90;;;;;;4992048;28;20100;-73
2022/08/25 07:47:11;;;;;;;7.15;3.28;;;23.20;99.90;;;;;;4997790;28;20496;-73
2022/08/25 07:49:57;;;;;;;9.32;3.15;;;23.30;99.90;;;;;;4978121;28;20046;-73
2022/08/25 07:52:43;;;;;;;9.32;3.25;;;23.50;99.90;;;;;;4994612;28;20058;-73
2022/08/25 07:55:29;;;;;;;6.45;3.13;;;23.60;99.90;;;;;;5015160;28;20132;-73
2022/08/25 07:58:17;;;;;;;9.02;2.88;;;23.80;99.90;;;;;;4983432;28;20045;-73
2022/08/25 08:01:03;;;;;;;7.45;3.47;;;23.90;99.90;;;;;;4996697;28;20053;-73
2022/08/25 08:03:50;;;;;;;7.45;3.22;;;24.10;99.90;;;;;;4996045;28;20053;-73
2022/08/25 08:06:37;;;;;;;5.35;3.10;;;24.30;99.90;;;;;;4988356;28;20056;-73
2022/08/25 08:09:23;;;;;;;6.07;2.78;;;24.40;99.90;;;;;;5009424;28;20370;-73
2022/08/25 08:12:10;;;;;;;7.30;3.10;;;24.60;99.90;;;;;;5013386;28;20132;-74
2022/08/25 08:14:57;;;;;;;5.68;3.25;;;24.80;99.90;;;;;;4981212;28;20064;-73
2022/08/25 08:17:43;;;;;;;8.85;2.80;;;24.90;99.90;;;;;;4993044;28;20061;-73
2022/08/25 08:20:32;;;;;;;5.07;2.67;;;25.00;99.90;;;;;;5013102;28;20041;-73
2022/08/25 08:23:18;;;;;;;6.28;3.08;;;25.20;99.90;;;;;;4997418;28;20076;-73
2022/08/25 08:26:04;;;;;;;6.00;2.80;;;25.30;99.90;;;;;;4996471;28;20047;-73
2022/08/25 08:28:50;;;;;;;12.07;3.05;;;25.50;99.90;;;;;;4976667;28;20042;-73
2022/08/25 08:31:36;;;;;;;4.40;2.70;;;25.60;99.90;;;;;;4994366;28;20042;-73
2022/08/25 08:34:22;;;;;;;4.43;2.80;;;25.80;99.90;;;;;;5008418;28;20054;-73
2022/08/25 08:37:08;;;;;;;5.65;2.70;;;25.90;99.90;;;;;;4991729;28;20045;-73
2022/08/25 08:39:54;;;;;;;3.47;2.55;;;26.10;99.90;;;;;;5007080;28;20050;-72
2022/08/25 08:43:05;;;;;;;6.18;2.80;;;26.20;99.90;;;;;;4981580;28;20041;-73
2022/08/25 08:45:51;;;;;;;8.60;2.92;;;26.40;99.90;;;;;;5001663;28;20053;-71
2022/08/25 08:48:56;;;;;;;6.25;2.50;;;26.60;99.70;;;;;;5000510;28;20124;-72
2022/08/25 08:51:54;;;;;;;8.13;2.60;;;26.80;99.60;;;;;;4999890;28;20057;-73
2022/08/25 08:54:43;;;;;;;5.47;2.42;;;26.90;99.40;;;;;;5001282;28;20050;-72
2022/08/25 08:57:42;;;;;;;7.97;2.60;;;27.00;99.00;;;;;;5000793;28;20042;-73
2022/08/25 09:00:29;;;;;;;6.97;2.60;;;27.20;98.90;;;;;;5002164;28;20108;-73
2022/08/25 09:03:34;;;;;;;9.38;2.75;;;27.40;98.60;;;;;;5015708;28;20393;-73
2022/08/25 09:06:52;;;;;;;8.23;2.60;;;27.60;99.10;;;;;;5000728;28;20077;-73
2022/08/25 09:09:41;;;;;;;8.00;2.30;;;27.70;97.90;;;;;;5017050;28;20381;-73
2022/08/25 09:12:40;;;;;;;6.90;2.53;;;27.80;97.50;;;;;;5003690;28;20049;-73
2022/08/25 09:18:50;;;;;;;5.00;2.00;;;28.20;95.50;;;;;;5001367;28;20126;-73
2022/08/25 09:21:57;;;;;;;6.82;2.25;;;28.30;95.50;;;;;;5005206;28;20045;-73
2022/08/25 09:25:09;;;;;;;7.50;2.17;;;28.40;94.70;;;;;;4999074;28;20076;-72
2022/08/25 09:28:11;;;;;;;4.40;2.40;;;28.60;93.90;;;;;;4999481;28;20045;-72
2022/08/25 09:31:04;;;;;;;9.80;2.23;;;28.80;92.90;;;;;;5000177;28;20099;-73
2022/08/25 09:33:56;;;;;;;3.70;2.13;;;29.00;92.40;;;;;;4996830;28;20300;-73
2022/08/25 09:36:41;;;;;;;4.97;2.00;;;29.20;91.10;;;;;;5001402;28;20488;-73
2022/08/25 09:39:27;;;;;;;6.95;1.90;;;29.40;90.10;;;;;;4988701;28;20057;-73
2022/08/25 09:42:13;;;;;;;5.20;2.00;;;29.50;87.40;;;;;;4977927;28;20046;-73
2022/08/25 09:44:59;;;;;;;7.93;2.10;;;29.60;88.00;;;;;;4985689;28;20420;-73
2022/08/25 09:47:45;;;;;;;11.00;2.40;;;29.80;87.70;;;;;;4993050;28;20046;-73
2022/08/25 09:50:32;;;;;;;9.52;2.45;;;30.00;83.10;;;;;;5013584;28;20575;-73
2022/08/25 09:53:18;;;;;;;4.65;1.98;;;30.10;81.20;;;;;;4994601;28;20054;-73
2022/08/25 09:56:08;;;;;;;5.40;2.30;;;30.20;80.00;;;;;;5015303;28;20096;-73
2022/08/25 09:58:56;;;;;;;7.18;1.90;;;30.30;79.60;;;;;;4989688;28;20046;-73
2022/08/25 10:01:51;;;;;;;3.80;2.08;;;30.50;78.80;;;;;;4994287;28;20128;-73
2022/08/25 10:04:38;;;;;;;3.92;1.95;;;30.60;77.30;;;;;;5002753;28;20525;-73
2022/08/25 10:07:35;;;;;;;6.43;1.85;;;30.80;76.40;;;;;;4995100;28;20409;-73
2022/08/25 10:10:31;;;;;;;9.90;3.20;;;31.00;73.10;;;;;;4996971;28;20050;-73
2022/08/25 10:13:19;;;;;;;7.90;2.00;;;31.20;73.30;;;;;;5010897;28;20400;-73
2022/08/25 10:16:20;;;;;;;5.65;2.33;;;31.30;72.90;;;;;;5011277;28;20054;-73
2022/08/25 10:19:24;;;;;;;5.03;2.10;;;31.40;71.60;;;;;;4992429;28;20718;-73
2022/08/25 10:22:24;;;;;;;8.48;2.05;;;31.50;69.40;;;;;;5000900;28;20109;-73
2022/08/25 10:25:14;;;;;;;3.88;1.98;;;31.60;65.50;;;;;;5010374;28;20050;-72
2022/08/25 10:28:13;;;;;;;6.70;1.90;;;31.70;67.60;;;;;;5015954;28;20041;-72
2022/08/25 10:31:20;;;;;;;4.15;2.00;;;31.90;65.20;;;;;;4998240;28;20124;-72
2022/08/25 10:34:48;;;;;;;4.57;2.05;;;32.00;65.50;;;;;;5015771;28;20486;-72
2022/08/25 10:38:06;;;;;;;8.25;2.15;;;32.20;67.30;;;;;;5001612;28;20566;-73
2022/08/25 10:41:08;;;;;;;4.22;2.13;;;32.40;65.20;;;;;;4975271;28;20053;-71
2022/08/25 10:43:54;;;;;;;4.78;1.90;;;32.60;66.00;;;;;;4996986;28;20104;-72
2022/08/25 10:46:53;;;;;;;3.83;1.70;;;32.70;64.70;;;;;;4994597;28;20046;-73
2022/08/25 10:49:47;;;;;;;6.68;2.10;;;32.80;61.00;;;;;;5004287;28;20136;-72
2022/08/25 10:52:56;;;;;;;2.88;1.73;;;32.90;61.80;;;;;;5012932;28;20053;-73
2022/08/25 10:55:54;;;;;;;3.45;2.13;;;33.00;59.30;;;;;;5010643;28;20093;-73
2022/08/25 10:58:55;;;;;;;4.00;1.88;;;33.20;60.30;;;;;;4992919;28;20058;-72
2022/08/25 11:01:41;;;;;;;5.18;1.60;;;33.40;60.00;;;;;;4995934;28;20111;-73
2022/08/25 11:04:44;;;;;;;8.32;2.45;;;33.50;56.20;;;;;;4995605;28;20085;-73
2022/08/25 11:07:46;;;;;;;3.95;1.63;;;33.70;56.80;;;;;;4994170;28;20101;-72
2022/08/25 11:10:35;;;;;;;4.70;1.77;;;33.90;56.10;;;;;;4994693;28;20192;-74
2022/08/25 11:13:36;;;;;;;2.95;1.70;;;34.00;56.60;;;;;;4996712;28;20488;-73
2022/08/25 11:16:46;;;;;;;3.67;1.52;;;34.10;52.80;;;;;;4982504;28;20050;-73
2022/08/25 11:19:45;;;;;;;5.78;1.80;;;34.10;55.00;;;;;;4976738;28;20092;-73
2022/08/25 11:22:43;;;;;;;5.22;1.70;;;34.30;54.90;;;;;;4997508;28;20050;-73
2022/08/25 11:25:44;;;;;;;6.35;2.30;;;34.30;55.80;;;;;;4993098;28;20571;-73
2022/08/25 11:29:01;;;;;;;5.53;1.83;;;34.30;53.50;;;;;;4997279;28;20081;-73
2022/08/25 11:31:52;;;;;;;5.45;1.70;;;34.40;56.50;;;;;;4996324;28;20104;-73
2022/08/25 11:34:38;;;;;;;9.32;1.90;;;34.50;52.60;;;;;;4996945;28;20128;-73
2022/08/25 11:37:27;;;;;;;4.05;1.98;;;34.40;54.20;;;;;;4985111;28;20053;-73
2022/08/25 11:40:40;;;;;;;5.35;1.85;;;34.60;53.00;;;;;;5012444;28;20507;-73
2022/08/25 11:43:53;;;;;;;3.70;1.80;;;34.70;52.00;;;;;;4995057;28;20129;-73
2022/08/25 11:47:09;;;;;;;4.88;1.70;;;34.70;51.50;;;;;;5011883;28;20045;-73
2022/08/25 11:50:06;;;;;;;6.95;1.77;;;34.80;50.90;;;;;;4995462;28;20134;-72
2022/08/25 11:53:14;;;;;;;6.43;1.63;;;35.00;50.80;;;;;;4991255;28;20037;-71
2022/08/25 11:56:04;;;;;;;3.25;1.40;;;35.10;49.90;;;;;;5023446;28;20045;-71
2022/08/25 11:58:51;;;;;;;3.92;1.70;;;35.20;50.00;;;;;;4992075;28;20382;-71
2022/08/25 12:01:41;;;;;;;4.63;1.30;;;35.20;48.20;;;;;;4999137;28;20572;-71
2022/08/25 12:04:41;;;;;;;5.80;1.30;;;35.30;48.00;;;;;;5012317;28;20486;-71
2022/08/25 12:07:48;;;;;;;3.80;1.42;;;35.40;46.60;;;;;;5025365;28;20129;-71
2022/08/25 12:10:58;;;;;;;2.47;1.60;;;35.40;46.20;;;;;;4993456;28;20053;-71
2022/08/25 12:13:49;;;;;;;4.63;1.60;;;35.60;48.90;;;;;;4998766;28;20064;-72
2022/08/25 12:16:35;;;;;;;3.63;1.42;;;35.70;48.70;;;;;;4990410;28;20060;-71
2022/08/25 12:19:26;;;;;;;4.20;1.70;;;35.70;47.80;;;;;;4975203;28;20053;-71
2022/08/25 12:22:12;;;;;;;3.88;1.40;;;35.80;46.80;;;;;;4990735;28;20046;-72
2022/08/25 12:25:19;;;;;;;2.40;1.35;;;35.80;48.00;;;;;;4990014;28;20584;-71
2022/08/25 12:28:34;;;;;;;3.83;1.63;;;35.90;48.60;;;;;;4997404;28;20095;-71
2022/08/25 12:31:38;;;;;;;2.45;1.50;;;36.00;46.90;;;;;;4995910;28;20055;-71
2022/08/25 12:34:50;;;;;;;3.60;1.45;;;36.30;46.60;;;;;;4976366;28;20051;-71
2022/08/25 12:38:01;;;;;;;2.00;1.48;;;36.30;46.20;;;;;;4994026;28;20034;-71
2022/08/25 12:40:46;;;;;;;5.43;1.40;;;36.50;46.20;;;;;;5018935;28;20038;-71
2022/08/25 12:43:36;;;;;;;4.80;1.33;;;36.40;44.90;;;;;;4976489;28;20046;-71
2022/08/25 12:46:21;;;;;;;3.17;1.50;;;36.40;45.90;;;;;;4999867;28;20111;-71
2022/08/25 12:49:29;;;;;;;3.22;1.55;;;36.30;45.20;;;;;;5000913;28;20465;-71
2022/08/25 12:52:19;;;;;;;8.75;1.65;;;36.20;47.40;;;;;;5018684;28;20052;-71
2022/08/25 12:55:10;;;;;;;8.57;1.65;;;36.40;46.80;;;;;;5001776;28;20053;-71
2022/08/25 12:57:57;;;;;;;1.83;1.20;;;36.50;47.10;;;;;;5000827;28;20049;-72
2022/08/25 13:01:26;;;;;;;7.32;1.70;;;36.50;46.20;;;;;;5000981;28;20045;-73
2022/08/25 13:04:24;;;;;;;6.85;1.50;;;36.50;45.80;;;;;;4970504;28;20060;-71
2022/08/25 13:07:17;;;;;;;2.30;1.50;;;36.40;45.30;;;;;;5000528;28;20417;-71
2022/08/25 13:10:40;;;;;;;3.28;1.52;;;36.60;43.10;;;;;;5019456;28;20048;-71
2022/08/25 13:13:59;;;;;;;4.97;1.60;;;36.60;46.00;;;;;;4998840;28;20057;-71
2022/08/25 13:16:57;;;;;;;2.55;1.50;;;36.60;44.20;;;;;;4999964;28;20045;-71
2022/08/25 13:19:42;;;;;;;3.88;1.55;;;36.90;45.30;;;;;;4998156;28;20529;-69
2022/08/25 13:22:30;;;;;;;2.15;1.40;;;36.90;46.60;;;;;;4997891;28;20046;-72
2022/08/25 13:25:25;;;;;;;4.40;1.45;;;37.10;46.10;;;;;;5020088;28;20139;-71
2022/08/25 13:28:21;;;;;;;4.10;1.73;;;37.20;46.90;;;;;;5015573;28;20038;-71
2022/08/25 13:31:19;;;;;;;2.83;1.70;;;37.20;44.70;;;;;;4999086;28;20038;-72
2022/08/25 13:34:17;;;;;;;4.35;1.73;;;37.30;45.70;;;;;;5001620;28;20400;-72
2022/08/25 13:37:27;;;;;;;4.32;1.80;;;37.50;45.30;;;;;;4997495;28;20049;-72
2022/08/25 13:40:22;;;;;;;5.80;1.38;;;37.60;43.70;;;;;;5003123;28;20559;-72
2022/08/25 13:43:10;;;;;;;3.10;1.60;;;37.60;44.00;;;;;;5000599;28;20057;-71
2022/08/25 13:45:56;;;;;;;5.85;1.50;;;37.60;42.90;;;;;;5003116;28;20425;-72
2022/08/25 13:48:43;;;;;;;7.82;1.75;;;37.50;43.20;;;;;;5008411;28;20050;-71
2022/08/25 13:51:29;;;;;;;3.38;1.48;;;37.60;44.50;;;;;;4990991;28;20057;-72
2022/08/25 13:54:36;;;;;;;2.17;1.40;;;37.60;42.90;;;;;;5003396;28;20046;-72
2022/08/25 13:57:27;;;;;;;3.88;1.45;;;37.70;44.00;;;;;;4999623;28;20084;-72
2022/08/25 14:00:26;;;;;;;5.43;1.33;;;37.80;43.90;;;;;;5021014;28;20449;-72
2022/08/25 14:03:36;;;;;;;2.83;1.38;;;38.00;42.80;;;;;;5012146;28;20049;-73
2022/08/25 14:06:26;;;;;;;2.10;1.13;;;38.00;41.10;;;;;;5000116;28;20052;-72
2022/08/25 14:09:17;;;;;;;4.22;1.25;;;38.00;41.90;;;;;;4982815;28;20517;-72
2022/08/25 14:12:03;;;;;;;5.43;1.23;;;38.20;42.10;;;;;;4981836;28;20045;-72
2022/08/25 14:14:58;;;;;;;3.35;1.20;;;38.20;41.30;;;;;;4993652;28;20052;-72
2022/08/25 14:17:58;;;;;;;4.05;1.48;;;38.30;43.50;;;;;;5011805;28;20048;-72
2022/08/25 14:20:50;;;;;;;3.03;1.40;;;38.40;43.90;;;;;;5000670;28;20184;-72
2022/08/25 14:23:37;;;;;;;3.15;1.30;;;38.40;42.80;;;;;;5007115;28;20049;-72
2022/08/25 14:26:24;;;;;;;4.82;1.55;;;38.40;42.50;;;;;;4996254;28;20057;-72
2022/08/25 14:29:11;;;;;;;3.22;1.45;;;38.50;42.30;;;;;;4991946;28;20120;-72
2022/08/25 14:31:58;;;;;;;5.35;1.25;;;38.40;41.80;;;;;;4994799;28;20528;-72
2022/08/25 14:34:44;;;;;;;5.38;1.30;;;38.40;41.80;;;;;;5010550;28;20046;-72
2022/08/25 14:37:30;;;;;;;4.13;1.35;;;38.30;40.60;;;;;;5007483;28;20046;-72
2022/08/25 14:40:18;;;;;;;2.78;1.20;;;38.40;41.80;;;;;;5017642;28;20069;-72
2022/08/25 14:43:06;;;;;;;2.88;1.20;;;38.60;42.50;;;;;;5018744;28;20034;-72
2022/08/25 14:45:52;;;;;;;3.67;1.20;;;38.70;41.40;;;;;;4999045;28;20456;-71
2022/08/25 14:48:45;;;;;;;3.30;1.42;;;38.80;41.10;;;;;;5001974;28;20038;-72
2022/08/25 14:51:32;;;;;;;3.33;1.50;;;38.50;39.70;;;;;;5010578;28;20140;-72
2022/08/25 14:54:23;;;;;;;7.80;1.88;;;38.40;40.50;;;;;;5018125;28;20050;-72
2022/08/25 14:57:09;;;;;;;2.38;1.33;;;38.40;40.90;;;;;;5021947;28;20454;-72